• Join FlightAware (Why Join?)
  • Login
  • US Flag 
12:45PM EDT


 

Airport Tracker/Info


-or-


 

Live Flight TrackerFlight Track Log ✈ AVN11 ✈ 04-Jul-2014 ✈ YSSY / SYD - NVVV / VLI

Flight Track Log - Related Links

Times and Time Zones

All times are in EDT time to prevent confusion due to time zone crossing. See the AVN11 flight status page for this flight to view local times or setup timezone preferences in your user account.

Time Position Orientation Groundspeed Altitude Reporting Facility
EDT Latitude Longitude Course Direction KTS MPH feet Rate Location/Type
09:06PM -33.9445 151.1871 349° North 166 191 500  Level FlightAware ADS-B (EVDA / DGP)
09:06PM -33.9397 151.1865 North 167 192 1,000 3,000 Climbing FlightAware ADS-B (EVDA / DGP)
09:06PM -33.9333 151.1887 34° Northeast 172 198 1,300 2,220 Climbing FlightAware ADS-B (YRAY)
09:06PM -33.9269 151.1961 57° Northeast 181 208 1,600 1,620 Climbing FlightAware ADS-B (EVDA / DGP)
09:06PM -33.9249 151.2040 80° East 186 214 1,800 1,560 Climbing FlightAware ADS-B (YRAY)
09:06PM -33.9262 151.2141 106° East 189 217 2,100 2,100 Climbing FlightAware ADS-B (YRAY)
09:06PM -33.9278 151.2187 115° Southeast 189 217 2,300 3,000 Climbing FlightAware ADS-B (EVDA / DGP)
09:06PM -33.9300 151.2239 116° Southeast 189 217 2,600 1,860 Climbing FlightAware ADS-B (EVDA / DGP)
09:07PM -33.9343 151.2345 114° Southeast 207 238 2,800 900 Climbing FlightAware ADS-B (EVDA / DGP)
09:07PM -33.9371 151.2445 104° East 216 249 2,900 780 Climbing FlightAware ADS-B (YRAY)
09:07PM -33.9379 151.2505 98° East 222 255 3,000 960 Climbing FlightAware ADS-B (YRAY)
09:07PM -33.9382 151.2594 99° East 221 254 3,100 1,080 Climbing FlightAware ADS-B (YSSY / SYD)
09:07PM -33.9380 151.2724 88° East 249 287 3,300 1,380 Climbing FlightAware ADS-B (YSSY / SYD)
09:07PM -33.9371 151.3020 89° East 274 315 3,800 1,320 Climbing FlightAware ADS-B (YRAY)
09:08PM -33.9367 151.3118 89° East 287 330 3,900 1,020 Climbing FlightAware ADS-B (YRAY)
09:08PM -33.9368 151.3095 88° East 304 350 4,100 1,200 Climbing FlightAware ADS-B (YSSY / SYD)
09:08PM -33.9355 151.3452 88° East 322 371 4,300 780 Climbing FlightAware ADS-B (YSSY / SYD)
09:08PM -33.9323 151.3708 80° East 334 384 4,400 660 Climbing FlightAware ADS-B (YSSY / SYD)
09:08PM -33.9313 151.3744 70° East 340 391 4,500 1,080 Climbing FlightAware ADS-B (YRPA)
09:08PM -33.9249 151.3898 61° Northeast 344 396 4,600 420 Climbing FlightAware ADS-B (YSSY / SYD)
09:08PM -33.9203 151.3979 54° Northeast 346 398 4,600 600 Level FlightAware ADS-B (YSSY / SYD)
09:09PM -33.9129 151.4088 50° Northeast 348 400 4,800 420 Climbing FlightAware ADS-B (YSSY / SYD)
09:09PM -33.8968 151.4324 52° Northeast 348 400 4,800 360 Level FlightAware ADS-B (YSSY / SYD)
09:09PM -33.9063 151.4183 51° Northeast 348 400 5,000 1,500 Climbing FlightAware ADS-B (EVDA / DGP)
09:10PM -33.8543 151.4976 53° Northeast 343 395 5,800 2,760 Climbing FlightAware ADS-B (EVDA / DGP)
09:10PM -33.8351 151.5276 52° Northeast 344 396 6,800 2,760 Climbing FlightAware ADS-B (EVDA / DGP)
09:10PM -33.8172 151.5551 52° Northeast 353 406 7,600 2,400 Climbing FlightAware ADS-B (YSSY / SYD)
09:10PM -33.8103 151.5657 53° Northeast 346 398 7,800 2,520 Climbing FlightAware ADS-B (YRAY)
09:11PM -33.7891 151.5979 52° Northeast 362 417 8,700 2,640 Climbing FlightAware ADS-B (YRAY)
09:11PM -33.7729 151.6223 52° Northeast 365 420 9,400 3,060 Climbing FlightAware ADS-B (YRAY)
09:11PM -33.7465 151.6624 52° Northeast 367 422 11,000 3,060 Climbing FlightAware ADS-B (YSSY / SYD)
09:12PM -33.7139 151.7126 52° Northeast 366 421 12,500 2,580 Climbing FlightAware ADS-B (YSSY / SYD)
09:12PM -33.6766 151.7695 52° Northeast 376 433 13,700 2,460 Climbing FlightAware ADS-B (YRPA)
09:13PM -33.6430 151.8208 52° Northeast 384 442 15,100 2,580 Climbing FlightAware ADS-B (YSSY / SYD)
09:13PM -33.6103 151.8707 52° Northeast 387 445 16,400 2,340 Climbing FlightAware ADS-B (YSSY / SYD)
09:14PM -33.5745 151.9256 52° Northeast 391 450 17,500 2,100 Climbing FlightAware ADS-B (YSSY / SYD)
09:15PM -33.5370 151.9827 52° Northeast 401 461 18,700 2,040 Climbing FlightAware ADS-B (YRPA)
09:15PM -33.4973 152.0429 52° Northeast 405 466 19,900 2,100 Climbing FlightAware ADS-B (YSSY / SYD)
09:16PM -33.4585 152.1017 52° Northeast 412 474 21,000 2,280 Climbing FlightAware ADS-B (EVDA / DGP)
09:16PM -33.4281 152.1480 51° Northeast 415 478 21,600 1,740 Climbing FlightAware ADS-B (YPLB)
09:16PM -33.4255 152.1518 52° Northeast 418 481 22,300 1,980 Climbing FlightAware ADS-B (EVDA / DGP)
09:17PM -33.3527 152.2619 51° Northeast 420 483 23,700 2,520 Climbing FlightAware ADS-B (YPLB)
09:17PM -33.3422 152.2778 51° Northeast 420 483 24,000 1,560 Climbing FlightAware ADS-B (YPLB)
09:17PM -33.3305 152.2955 51° Northeast 421 484 24,200 1,500 Climbing FlightAware ADS-B (YPLB)
09:18PM -33.3044 152.3347 51° Northeast 425 489 24,800 1,140 Climbing FlightAware ADS-B (YPLB)
09:18PM -33.3172 152.3156 52° Northeast 425 489 25,400 1,260 Climbing FlightAware ADS-B (YSSY / SYD)
09:19PM -33.2052 152.4837 51° Northeast 441 507 26,500 1,140 Climbing FlightAware ADS-B (YPLB)
09:20PM -33.1631 152.5468 52° Northeast 448 516 27,100 960 Climbing FlightAware ADS-B (YRPA)
09:20PM -33.1025 152.6374 51° Northeast 459 528 27,800 1,260 Climbing FlightAware ADS-B (YPLB)
09:20PM -33.1206 152.6107 52° Northeast 442 509 27,800 660 Level Aus ATC (RADAR)
09:21PM -33.0456 152.7222 51° Northeast 473 544 28,300 540 Climbing FlightAware ADS-B (YPLB)
09:22PM -32.9970 152.7946 51° Northeast 482 555 28,700 720 Climbing FlightAware ADS-B (YRPA)
09:22PM -32.9539 152.8599 51° Northeast 487 560 29,300 1,680 Climbing Aus ATC (RADAR)
09:22PM -32.9204 152.9088 51° Northeast 485 558 29,800 2,400 Climbing FlightAware ADS-B (YPLB)
09:23PM -32.9056 152.9311 51° Northeast 483 556 30,100 1,560 Climbing FlightAware ADS-B (YPLB)
09:23PM -32.8534 153.0088 51° Northeast 478 550 31,100 1,140 Climbing FlightAware ADS-B (YPLB)
09:24PM -32.8260 153.0494 51° Northeast 478 550 31,500 900 Climbing FlightAware ADS-B (YRPA)
09:24PM -32.7550 153.1538 51° Northeast 485 558 32,200 960 Climbing FlightAware ADS-B (YPLB)
09:25PM -32.7126 153.2165 51° Northeast 474 545 32,800 780 Climbing Aus ATC (RADAR)
09:25PM -32.6885 153.2529 52° Northeast 489 563 33,000 660 Climbing Aus ATC (RADAR)
09:25PM -32.6697 153.2792 51° Northeast 490 564 33,000 840 Level FlightAware ADS-B (YPLB)
09:26PM -32.5995 153.3820 51° Northeast 492 566 33,700 720 Climbing FlightAware ADS-B (YPLB)
09:27PM -32.5656 153.4316 51° Northeast 494 568 34,100 720 Climbing FlightAware ADS-B (YRPA)
09:27PM -32.5020 153.5246 51° Northeast 497 572 34,600 720 Climbing FlightAware ADS-B (YPLB)
09:28PM -32.4733 153.5665 51° Northeast 498 573 34,900 360 Climbing FlightAware ADS-B (YRPA)
09:28PM -32.4073 153.6622 50° Northeast 502 578 35,000 660 Climbing FlightAware ADS-B (YPLB)
09:28PM -32.4222 153.6418 51° Northeast 501 577 35,300  Climbing Aus ATC (RADAR)
09:29PM -32.3840 153.6962 51° Northeast 503 579 35,000 -360 Descending FlightAware ADS-B (YRPA)
09:29PM -32.3196 153.7901 51° Northeast 504 580 35,000  Level FlightAware ADS-B (YPLB)
09:30PM -32.2608 153.8753 50° Northeast 506 582 35,000 120 Level FlightAware ADS-B (YPLB)
09:31PM -32.2194 153.9359 50° Northeast 490 564 35,200  Climbing Aus ATC (RADAR)
09:31PM -32.1873 153.9816 50° Northeast 507 583 35,000 -300 Descending FlightAware ADS-B (YPLB)
09:31PM -32.1305 154.0633 50° Northeast 510 587 35,000  Level FlightAware ADS-B (YPLB)
09:32PM -32.0807 154.1347 50° Northeast 512 589 35,000 300 Level FlightAware ADS-B (YPLB)
09:32PM -32.0969 154.1124 50° Northeast 509 586 35,200  Climbing Aus ATC (RADAR)
09:33PM -32.0266 154.2122 50° Northeast 514 592 35,000 -180 Descending FlightAware ADS-B (YPLB)
09:33PM -31.9650 154.3007 50° Northeast 514 592 35,000  Level FlightAware ADS-B (YPLB)
09:34PM -31.9163 154.3700 50° Northeast 514 592 35,000 180 Level FlightAware ADS-B (YPLB)
09:34PM -31.8933 154.4032 50° Northeast 513 590 35,200  Climbing Aus ATC (RADAR)
09:35PM -31.8543 154.4583 50° Northeast 515 593 35,000 -300 Descending FlightAware ADS-B (YPLB)
09:35PM -31.7962 154.5410 50° Northeast 515 593 35,000 120 Level FlightAware ADS-B (YPLB)
09:36PM -31.7418 154.6187 50° Northeast 514 592 35,200 60 Climbing Aus ATC (RADAR)
09:37PM -31.6429 154.7582 50° Northeast 513 590 35,200  Level Aus ATC (RADAR)
09:38PM -31.6051 154.8116 50° Northeast 513 590 35,200  Level Aus ATC (RADAR)
09:38PM -31.5518 154.8864 50° Northeast 512 589 35,200 -180 Level Aus ATC (RADAR)
09:39PM -31.4771 154.9912 50° Northeast 516 594 35,000  Descending FlightAware ADS-B (YPLB)
09:39PM -31.4830 154.9829 50° Northeast 515 593 35,200  Climbing Aus ATC (RADAR)
09:39PM -31.4298 155.0579 50° Northeast 517 595 35,000 -240 Descending FlightAware ADS-B (YPLB)
09:40PM -31.3890 155.1152 50° Northeast 517 595 35,000  Level FlightAware ADS-B (YPLB)
09:40PM -31.3374 155.1873 50° Northeast 517 595 35,000 300 Level FlightAware ADS-B (YPLB)
09:40PM -31.3453 155.1761 50° Northeast 517 595 35,200 240 Climbing Aus ATC (RADAR)
09:41PM -31.2923 155.2504 50° Northeast 514 592 35,200  Level Aus ATC (RADAR)
09:42PM -31.1775 155.4071 49° Northeast 498 573 35,200  Level Aus ATC (RADAR)
09:43PM -31.1230 155.4861 51° Northeast 518 596 35,200  Level Aus ATC (RADAR)
09:43PM -31.0921 155.5290 50° Northeast 518 596 35,200  Level Aus ATC (RADAR)
09:44PM -31.0371 155.5999 48° Northeast 502 578 35,200  Level Aus ATC (RADAR)
09:44PM -30.9679 155.7005 51° Northeast 519 597 35,200  Level Aus ATC (RADAR)
09:45PM -30.9132 155.7759 50° Northeast 521 600 35,200  Level Aus ATC (RADAR)
09:46PM -30.8118 155.9151 50° Northeast 520 598 35,200  Level Aus ATC (RADAR)
09:48PM -30.6526 156.1246 49° Northeast 518 596 35,200  Level Aus ATC (RADAR)
09:48PM -30.6289 156.1560 49° Northeast 518 596 35,200  Level Aus ATC (RADAR)
09:49PM -30.5734 156.2294 49° Northeast 518 596 35,200  Level Aus ATC (RADAR)
09:49PM -30.4862 156.3443 49° Northeast 517 595 35,200  Level Aus ATC (RADAR)
09:50PM -30.4624 156.3757 49° Northeast 517 595 35,200 60 Level Aus ATC (RADAR)
09:50PM -30.3987 156.4590 48° Northeast 517 595 35,300 60 Climbing Aus ATC (RADAR)
09:51PM -30.3272 156.5526 48° Northeast 517 595 35,300 -60 Level Aus ATC (RADAR)
09:52PM -30.2315 156.6776 48° Northeast 517 595 35,200  Descending Aus ATC (RADAR)
09:53PM -30.1673 156.7611 48° Northeast 519 597 35,300 60 Climbing Aus ATC (RADAR)
09:53PM -30.1039 156.8437 48° Northeast 517 595 35,300  Level Aus ATC (RADAR)
09:54PM -30.0149 156.9587 48° Northeast 520 598 35,300  Level Aus ATC (RADAR)
09:55PM -29.9752 157.0105 48° Northeast 518 596 35,300  Level Aus ATC (RADAR)
09:56PM -29.8855 157.1263 48° Northeast 524 603 35,300  Level Aus ATC (RADAR)
09:56PM -29.8610 157.1576 48° Northeast 522 601 35,300  Level Aus ATC (RADAR)
09:57PM -29.7476 157.3035 48° Northeast 521 600 35,300  Level Aus ATC (RADAR)
09:58PM -29.6986 157.3661 48° Northeast 525 604 35,300  Level Aus ATC (RADAR)
09:58PM -29.6744 157.3975 49° Northeast 525 604 35,300  Level Aus ATC (RADAR)
09:58PM -29.6169 157.4705 48° Northeast 525 604 35,300  Level Aus ATC (RADAR)
09:59PM -29.5436 157.5639 48° Northeast 524 603 35,300  Level Aus ATC (RADAR)
10:00PM -29.5109 157.6055 48° Northeast 524 603 35,300  Level Aus ATC (RADAR)
10:00PM -29.4460 157.6884 48° Northeast 523 602 35,300 -60 Level Aus ATC (RADAR)
10:02PM -29.3153 157.8542 48° Northeast 522 601 35,200  Descending Aus ATC (RADAR)
10:03PM -29.1768 158.0297 48° Northeast 523 602 35,300 60 Climbing Aus ATC (RADAR)
10:03PM -29.1517 158.0613 48° Northeast 524 603 35,300  Level Aus ATC (RADAR)
10:04PM -29.0916 158.1341 47° Northeast 529 609 35,300  Level Aus ATC (RADAR)
10:04PM -29.0324 158.2059 47° Northeast 531 611 35,300  Level Aus ATC (RADAR)
10:09PM -28.4981 158.8715 47° Northeast 37,000 300 Climbing Aus ATC (Calculated)
10:11PM -28.3914 159.0031 47° Northeast  Level FlightAware Approximate
10:12PM -28.2972 159.1191 47° Northeast  Level FlightAware Approximate
10:12PM -28.2278 159.2034 48° Northeast 35,000  Level Aus ATC (Calculated)
10:13PM -28.2027 159.2347 47° Northeast  Level FlightAware Approximate
10:14PM -28.0970 159.3630 47° Northeast  Level FlightAware Approximate
10:15PM -28.0023 159.4782 47° Northeast  Level FlightAware Approximate
10:16PM -27.9075 159.5932 47° Northeast  Level FlightAware Approximate
10:16PM -27.7774 159.7504 227° Southwest 35,000  Level Aus ATC (Calculated)
10:17PM -27.8126 159.7079 47° Northeast  Level FlightAware Approximate
10:17PM -27.7343 159.8024 47° Northeast 35,000  Level Aus ATC (Calculated)
10:18PM -27.6808 159.8668 47° Northeast  Level FlightAware Approximate
10:19PM -27.5933 159.9720 47° Northeast  Level FlightAware Approximate
10:19PM -27.4792 160.1087 227° Southwest 35,000  Level Aus ATC (Calculated)
10:20PM -27.4981 160.0862 47° Northeast  Level FlightAware Approximate
10:20PM -27.4406 160.1549 47° Northeast 35,000  Level Aus ATC (Calculated)
10:22PM -27.2833 160.3425 47° Northeast  Level FlightAware Approximate
10:23PM -27.1878 160.4560 47° Northeast  Level FlightAware Approximate
10:23PM -27.1362 160.5171 47° Northeast 35,000  Level Aus ATC (Calculated)
10:23PM -27.0695 160.5961 46° Northeast 35,000  Level Aus ATC (Calculated)
10:25PM -26.9499 160.7374 46° Northeast  Level FlightAware Approximate
10:25PM -26.8753 160.8251 46° Northeast 35,000  Level Aus ATC (Calculated)
10:26PM -26.8540 160.8502 46° Northeast  Level FlightAware Approximate
10:27PM -26.7555 160.9659 46° Northeast  Level FlightAware Approximate
10:27PM -26.7579 160.9631 46° Northeast 35,000  Level Aus ATC (Calculated)
10:28PM -26.6619 161.0755 46° Northeast  Level FlightAware Approximate
10:29PM -26.5658 161.1877 46° Northeast  Level FlightAware Approximate
10:29PM -26.5959 161.1526 46° Northeast 35,000  Level Aus ATC (Calculated)
10:30PM -26.4997 161.2648 46° Northeast  Level FlightAware Approximate
10:31PM -26.4035 161.3767 46° Northeast  Level FlightAware Approximate
10:32PM -26.3072 161.4884 46° Northeast  Level FlightAware Approximate
10:33PM -26.2108 161.5999 46° Northeast  Level FlightAware Approximate
10:34PM -26.1143 161.7113 46° Northeast  Level FlightAware Approximate
10:35PM -26.0177 161.8224 46° Northeast  Level FlightAware Approximate
10:36PM -25.9211 161.9334 46° Northeast  Level FlightAware Approximate
10:37PM -25.8244 162.0442 46° Northeast  Level FlightAware Approximate
10:38PM -25.7275 162.1548 46° Northeast  Level FlightAware Approximate
10:39PM -25.6306 162.2653 46° Northeast  Level FlightAware Approximate
10:39PM -25.5380 162.3706 46° Northeast 35,000  Level Aus ATC (Calculated)
10:40PM -25.4410 162.4807 46° Northeast  Level FlightAware Approximate
10:41PM -25.3438 162.5906 46° Northeast  Level FlightAware Approximate
10:42PM -25.2466 162.7003 46° Northeast  Level FlightAware Approximate
10:43PM -25.1493 162.8099 46° Northeast  Level FlightAware Approximate
10:44PM -25.0519 162.9193 46° Northeast  Level FlightAware Approximate
10:45PM -24.9544 163.0285 45° Northeast  Level FlightAware Approximate
10:46PM -25.0519 162.9193 225° Southwest  Level FlightAware Approximate
10:47PM -24.9386 163.0080 45° Northeast  Level Estimated
10:48PM -24.8421 163.1181 46° Northeast  Level FlightAware Approximate
10:49PM -24.7455 163.2281 46° Northeast  Level FlightAware Approximate
10:50PM -24.6489 163.3379 46° Northeast  Level FlightAware Approximate
10:51PM -24.5521 163.4476 46° Northeast  Level FlightAware Approximate
10:52PM -24.4553 163.5571 46° Northeast  Level FlightAware Approximate
10:53PM -24.3584 163.6664 46° Northeast  Level FlightAware Approximate
10:54PM -24.2614 163.7755 46° Northeast  Level FlightAware Approximate
10:55PM -24.1643 163.8845 46° Northeast  Level FlightAware Approximate
10:56PM -24.0672 163.9933 46° Northeast  Level FlightAware Approximate
10:57PM -23.9700 164.1019 46° Northeast  Level FlightAware Approximate
10:58PM -23.8727 164.2104 46° Northeast  Level FlightAware Approximate
10:59PM -23.7753 164.3187 46° Northeast  Level FlightAware Approximate
11:00PM -23.6779 164.4268 45° Northeast  Level FlightAware Approximate
11:01PM -23.5804 164.5348 45° Northeast  Level FlightAware Approximate
11:02PM -23.4828 164.6427 45° Northeast  Level FlightAware Approximate
11:03PM -23.3642 164.7216 45° Northeast  Level Estimated
11:04PM -23.2670 164.8296 46° Northeast  Level FlightAware Approximate
11:05PM -23.1698 164.9375 46° Northeast  Level FlightAware Approximate
11:06PM -23.0724 165.0453 46° Northeast  Level FlightAware Approximate
11:07PM -22.9750 165.1529 45° Northeast  Level FlightAware Approximate
11:08PM -22.8775 165.2604 45° Northeast  Level FlightAware Approximate
11:09PM -22.7799 165.3677 45° Northeast  Level FlightAware Approximate
11:10PM -22.6823 165.4748 45° Northeast  Level FlightAware Approximate
11:11PM -22.5846 165.5818 45° Northeast  Level FlightAware Approximate
11:12PM -22.4869 165.6886 45° Northeast  Level FlightAware Approximate
11:13PM -22.3890 165.7953 45° Northeast  Level FlightAware Approximate
11:14PM -22.2911 165.9019 45° Northeast  Level FlightAware Approximate
11:15PM -22.1931 166.0083 45° Northeast  Level FlightAware Approximate
11:16PM -22.0951 166.1145 45° Northeast  Level FlightAware Approximate
11:17PM -21.9698 166.1793 24° Northeast  Level Estimated
11:18PM -21.8438 166.2424 25° Northeast  Level FlightAware Approximate
11:19PM -21.7178 166.3053 25° Northeast  Level FlightAware Approximate
11:20PM -21.5917 166.3681 25° Northeast  Level FlightAware Approximate
11:21PM -21.4656 166.4308 25° Northeast  Level FlightAware Approximate
11:22PM -21.3395 166.4933 25° Northeast  Level FlightAware Approximate
11:23PM -21.2134 166.5558 25° Northeast  Level FlightAware Approximate
11:24PM -21.0873 166.6182 25° Northeast  Level FlightAware Approximate
11:25PM -20.9611 166.6805 25° Northeast  Level FlightAware Approximate
11:26PM -20.8349 166.7426 25° Northeast  Level FlightAware Approximate
11:27PM -20.7087 166.8047 25° Northeast  Level FlightAware Approximate
11:28PM -20.5824 166.8667 25° Northeast  Level FlightAware Approximate
11:29PM -20.4562 166.9285 25° Northeast  Level FlightAware Approximate
11:30PM -20.3299 166.9902 25° Northeast  Level FlightAware Approximate
11:31PM -20.2036 167.0519 25° Northeast  Level FlightAware Approximate
11:32PM -20.0773 167.1134 25° Northeast  Level FlightAware Approximate
11:33PM -19.9509 167.1749 25° Northeast  Level FlightAware Approximate
11:34PM -19.8245 167.2363 25° Northeast  Level FlightAware Approximate
11:35PM -19.6982 167.2975 25° Northeast  Level FlightAware Approximate
11:36PM -19.5717 167.3587 25° Northeast  Level FlightAware Approximate
11:37PM -19.4470 167.4235 24° Northeast  Level Estimated
11:38PM -19.3196 167.4821 23° Northeast  Level FlightAware Approximate
11:39PM -19.1921 167.5407 23° Northeast  Level FlightAware Approximate
11:40PM -19.0647 167.5992 23° Northeast  Level FlightAware Approximate
11:41PM -18.9372 167.6576 23° Northeast  Level FlightAware Approximate
11:42PM -18.8097 167.7159 23° Northeast  Level FlightAware Approximate
11:43PM -18.6822 167.7741 23° Northeast  Level FlightAware Approximate
11:44PM -18.5594 167.8427 24° Northeast  Level Estimated
11:45PM -18.4316 167.9001 23° Northeast  Level FlightAware Approximate
11:46PM -18.3038 167.9574 23° Northeast  Level FlightAware Approximate
11:47PM -18.1760 168.0147 23° Northeast  Level FlightAware Approximate
11:48PM -18.0481 168.0719 23° Northeast  Level FlightAware Approximate
11:49PM -17.9203 168.1290 23° Northeast  Level FlightAware Approximate
11:50PM -17.7924 168.1860 23° Northeast  Level FlightAware Approximate
11:51PM -17.6746 168.2695 117° Southeast  Level FlightAware Approximate
11:52PM -17.6991 168.3198 117° Southeast  Level FlightAware Approximate
11:53PM -17.6993 168.3198 117° Southeast  Level Estimated
11:54PM -17.6991 168.3198 117° Southeast  Level FlightAware Approximate
11:55PM -17.6993 168.3198 117° Southeast  Level Estimated
11:56PM -17.6991 168.3198 117° Southeast  Level FlightAware Approximate
11:57PM -17.6993 168.3198 117° Southeast  Level Estimated
11:58PM -17.6991 168.3198 117° Southeast  Level FlightAware Approximate
11:59PM -17.6993 168.3198 117° Southeast  Level Estimated
12:00AM -17.6991 168.3198 117° Southeast  Level FlightAware Approximate
12:01AM -17.6993 168.3198 117° Southeast  Level Estimated
12:02AM -17.6991 168.3198 117° Southeast  Level FlightAware Approximate
12:03AM -17.6993 168.3198 117° Southeast  Level Estimated
12:04AM -17.6991 168.3198 117° Southeast  Level FlightAware Approximate
12:05AM -17.6993 168.3198 117° Southeast  Level Estimated
12:06AM -17.6991 168.3198 117° Southeast  Level FlightAware Approximate
12:07AM -17.6993 168.3198 117° Southeast  Level Estimated
12:08AM -17.6991 168.3198 117° Southeast  Level FlightAware Approximate